sensor_id;sensor_type;location;lat;lon;timestamp;P1;durP1;ratioP1;P2;durP2;ratioP2
7233;SDS011;3658;47.992;10.158;2024-03-23T00:53:42;1.60;;;1.50;;
7233;SDS011;3658;47.992;10.158;2024-03-23T00:56:08;1.70;;;1.50;;
7233;SDS011;3658;47.992;10.158;2024-03-23T00:58:34;1.50;;;1.40;;
7233;SDS011;3658;47.992;10.158;2024-03-23T01:01:01;1.53;;;1.43;;
7233;SDS011;3658;47.992;10.158;2024-03-23T01:03:28;1.80;;;1.30;;
7233;SDS011;3658;47.992;10.158;2024-03-23T01:05:58;1.97;;;1.50;;
7233;SDS011;3658;47.992;10.158;2024-03-23T01:08:24;1.73;;;1.40;;
7233;SDS011;3658;47.992;10.158;2024-03-23T01:10:56;1.70;;;1.60;;
7233;SDS011;3658;47.992;10.158;2024-03-23T01:13:23;2.53;;;1.40;;
7233;SDS011;3658;47.992;10.158;2024-03-23T01:15:50;1.60;;;1.50;;
7233;SDS011;3658;47.992;10.158;2024-03-23T01:18:16;2.20;;;1.40;;
7233;SDS011;3658;47.992;10.158;2024-03-23T01:20:44;1.53;;;1.43;;
7233;SDS011;3658;47.992;10.158;2024-03-23T01:23:09;1.30;;;1.20;;
7233;SDS011;3658;47.992;10.158;2024-03-23T01:25:36;1.90;;;1.60;;
7233;SDS011;3658;47.992;10.158;2024-03-23T01:28:04;1.57;;;1.47;;
7233;SDS011;3658;47.992;10.158;2024-03-23T01:30:31;1.50;;;1.40;;
7233;SDS011;3658;47.992;10.158;2024-03-23T01:32:57;2.10;;;1.40;;
7233;SDS011;3658;47.992;10.158;2024-03-23T01:35:24;1.47;;;1.30;;
7233;SDS011;3658;47.992;10.158;2024-03-23T01:37:50;1.97;;;1.57;;
7233;SDS011;3658;47.992;10.158;2024-03-23T01:40:16;1.57;;;1.40;;
7233;SDS011;3658;47.992;10.158;2024-03-23T01:42:42;1.50;;;1.40;;
7233;SDS011;3658;47.992;10.158;2024-03-23T01:45:22;1.37;;;1.27;;
7233;SDS011;3658;47.992;10.158;2024-03-23T01:47:48;1.53;;;1.43;;
7233;SDS011;3658;47.992;10.158;2024-03-23T01:50:15;1.57;;;1.40;;
7233;SDS011;3658;47.992;10.158;2024-03-23T01:52:42;1.43;;;1.33;;
7233;SDS011;3658;47.992;10.158;2024-03-23T01:55:09;1.30;;;1.20;;
7233;SDS011;3658;47.992;10.158;2024-03-23T01:57:35;1.77;;;1.50;;
7233;SDS011;3658;47.992;10.158;2024-03-23T02:00:02;1.40;;;1.30;;
7233;SDS011;3658;47.992;10.158;2024-03-23T02:02:29;1.70;;;1.50;;
7233;SDS011;3658;47.992;10.158;2024-03-23T02:04:56;1.40;;;1.30;;
7233;SDS011;3658;47.992;10.158;2024-03-23T02:07:22;1.40;;;1.30;;
7233;SDS011;3658;47.992;10.158;2024-03-23T02:09:49;1.50;;;1.40;;
7233;SDS011;3658;47.992;10.158;2024-03-23T02:12:16;1.40;;;1.30;;
7233;SDS011;3658;47.992;10.158;2024-03-23T02:14:43;2.17;;;1.40;;
7233;SDS011;3658;47.992;10.158;2024-03-23T02:17:09;1.70;;;1.60;;
7233;SDS011;3658;47.992;10.158;2024-03-23T02:19:37;1.40;;;1.30;;
7233;SDS011;3658;47.992;10.158;2024-03-23T02:22:03;1.70;;;1.30;;
7233;SDS011;3658;47.992;10.158;2024-03-23T02:24:32;1.63;;;1.43;;
7233;SDS011;3658;47.992;10.158;2024-03-23T02:26:59;1.40;;;1.30;;
7233;SDS011;3658;47.992;10.158;2024-03-23T02:29:26;1.43;;;1.33;;
7233;SDS011;3658;47.992;10.158;2024-03-23T02:31:51;1.53;;;1.43;;
7233;SDS011;3658;47.992;10.158;2024-03-23T02:34:18;1.57;;;1.30;;
7233;SDS011;3658;47.992;10.158;2024-03-23T02:36:44;1.60;;;1.50;;
7233;SDS011;3658;47.992;10.158;2024-03-23T02:39:10;1.50;;;1.40;;
7233;SDS011;3658;47.992;10.158;2024-03-23T02:41:38;1.53;;;1.43;;
7233;SDS011;3658;47.992;10.158;2024-03-23T02:44:05;1.40;;;1.30;;
7233;SDS011;3658;47.992;10.158;2024-03-23T02:46:30;1.40;;;1.30;;
7233;SDS011;3658;47.992;10.158;2024-03-23T02:48:57;1.30;;;1.20;;
7233;SDS011;3658;47.992;10.158;2024-03-23T02:51:23;1.60;;;1.30;;
7233;SDS011;3658;47.992;10.158;2024-03-23T02:53:50;1.60;;;1.50;;
7233;SDS011;3658;47.992;10.158;2024-03-23T02:56:16;1.30;;;1.20;;
7233;SDS011;3658;47.992;10.158;2024-03-23T02:58:44;1.40;;;1.30;;
7233;SDS011;3658;47.992;10.158;2024-03-23T03:01:10;1.40;;;1.30;;
7233;SDS011;3658;47.992;10.158;2024-03-23T03:03:36;1.73;;;1.40;;
7233;SDS011;3658;47.992;10.158;2024-03-23T03:06:02;1.30;;;1.20;;
7233;SDS011;3658;47.992;10.158;2024-03-23T03:08:29;1.40;;;1.27;;
7233;SDS011;3658;47.992;10.158;2024-03-23T03:10:55;1.03;;;1.03;;
7233;SDS011;3658;47.992;10.158;2024-03-23T03:13:22;1.43;;;1.33;;
7233;SDS011;3658;47.992;10.158;2024-03-23T03:15:49;1.40;;;1.20;;
7233;SDS011;3658;47.992;10.158;2024-03-23T03:18:16;1.40;;;1.30;;
7233;SDS011;3658;47.992;10.158;2024-03-23T03:20:42;1.77;;;1.40;;
7233;SDS011;3658;47.992;10.158;2024-03-23T03:23:09;1.43;;;1.33;;
7233;SDS011;3658;47.992;10.158;2024-03-23T03:25:35;1.80;;;1.23;;
7233;SDS011;3658;47.992;10.158;2024-03-23T03:28:01;1.30;;;1.20;;
7233;SDS011;3658;47.992;10.158;2024-03-23T03:30:29;1.23;;;1.13;;
7233;SDS011;3658;47.992;10.158;2024-03-23T03:32:57;1.20;;;1.10;;
7233;SDS011;3658;47.992;10.158;2024-03-23T03:35:23;1.33;;;1.23;;
7233;SDS011;3658;47.992;10.158;2024-03-23T03:37:49;1.73;;;1.40;;
7233;SDS011;3658;47.992;10.158;2024-03-23T03:40:15;1.30;;;1.20;;
7233;SDS011;3658;47.992;10.158;2024-03-23T03:42:42;1.60;;;1.50;;
7233;SDS011;3658;47.992;10.158;2024-03-23T03:45:08;1.30;;;1.20;;
7233;SDS011;3658;47.992;10.158;2024-03-23T03:47:35;1.33;;;1.23;;
7233;SDS011;3658;47.992;10.158;2024-03-23T03:50:02;1.30;;;1.20;;
7233;SDS011;3658;47.992;10.158;2024-03-23T03:52:29;1.20;;;1.10;;
7233;SDS011;3658;47.992;10.158;2024-03-23T03:54:59;1.20;;;1.10;;
7233;SDS011;3658;47.992;10.158;2024-03-23T03:57:28;1.20;;;1.10;;
7233;SDS011;3658;47.992;10.158;2024-03-23T03:59:54;1.47;;;1.37;;
7233;SDS011;3658;47.992;10.158;2024-03-23T04:02:21;1.40;;;1.20;;
7233;SDS011;3658;47.992;10.158;2024-03-23T04:04:46;1.30;;;1.20;;
7233;SDS011;3658;47.992;10.158;2024-03-23T04:07:15;1.37;;;1.27;;
7233;SDS011;3658;47.992;10.158;2024-03-23T04:09:42;1.30;;;1.20;;
7233;SDS011;3658;47.992;10.158;2024-03-23T04:12:09;1.47;;;1.23;;
7233;SDS011;3658;47.992;10.158;2024-03-23T04:14:35;1.40;;;1.30;;
7233;SDS011;3658;47.992;10.158;2024-03-23T04:17:02;1.47;;;1.20;;
7233;SDS011;3658;47.992;10.158;2024-03-23T04:19:28;1.50;;;1.40;;
7233;SDS011;3658;47.992;10.158;2024-03-23T04:21:54;1.80;;;1.23;;
7233;SDS011;3658;47.992;10.158;2024-03-23T04:24:21;1.10;;;1.10;;
7233;SDS011;3658;47.992;10.158;2024-03-23T04:26:50;1.20;;;1.10;;
7233;SDS011;3658;47.992;10.158;2024-03-23T04:29:15;1.53;;;1.43;;
7233;SDS011;3658;47.992;10.158;2024-03-23T04:31:42;1.30;;;1.20;;
7233;SDS011;3658;47.992;10.158;2024-03-23T04:34:08;1.77;;;1.30;;
7233;SDS011;3658;47.992;10.158;2024-03-23T04:36:34;1.20;;;1.10;;
7233;SDS011;3658;47.992;10.158;2024-03-23T04:39:00;1.40;;;1.30;;
7233;SDS011;3658;47.992;10.158;2024-03-23T04:41:28;1.20;;;1.10;;
7233;SDS011;3658;47.992;10.158;2024-03-23T04:43:56;1.53;;;1.27;;
7233;SDS011;3658;47.992;10.158;2024-03-23T04:46:23;1.20;;;1.10;;
7233;SDS011;3658;47.992;10.158;2024-03-23T04:48:49;1.53;;;1.30;;
7233;SDS011;3658;47.992;10.158;2024-03-23T04:51:22;1.20;;;1.13;;
7233;SDS011;3658;47.992;10.158;2024-03-23T04:53:49;1.10;;;1.10;;
7233;SDS011;3658;47.992;10.158;2024-03-23T04:56:16;1.47;;;1.30;;
7233;SDS011;3658;47.992;10.158;2024-03-23T04:58:44;1.23;;;1.13;;
7233;SDS011;3658;47.992;10.158;2024-03-23T05:01:10;1.40;;;1.30;;
7233;SDS011;3658;47.992;10.158;2024-03-23T05:03:38;1.30;;;1.20;;
7233;SDS011;3658;47.992;10.158;2024-03-23T05:06:04;1.30;;;1.20;;
7233;SDS011;3658;47.992;10.158;2024-03-23T05:08:31;1.03;;;1.03;;
7233;SDS011;3658;47.992;10.158;2024-03-23T05:10:57;1.30;;;1.20;;
7233;SDS011;3658;47.992;10.158;2024-03-23T05:13:24;1.00;;;1.00;;
7233;SDS011;3658;47.992;10.158;2024-03-23T05:15:52;0.90;;;0.90;;
7233;SDS011;3658;47.992;10.158;2024-03-23T05:18:19;1.20;;;1.10;;
7233;SDS011;3658;47.992;10.158;2024-03-23T05:20:45;1.67;;;1.47;;
7233;SDS011;3658;47.992;10.158;2024-03-23T05:23:12;2.70;;;1.20;;
7233;SDS011;3658;47.992;10.158;2024-03-23T05:25:38;2.23;;;1.13;;
7233;SDS011;3658;47.992;10.158;2024-03-23T05:28:04;2.07;;;1.20;;
7233;SDS011;3658;47.992;10.158;2024-03-23T05:30:31;2.17;;;1.40;;
7233;SDS011;3658;47.992;10.158;2024-03-23T05:33:00;1.20;;;1.10;;
7233;SDS011;3658;47.992;10.158;2024-03-23T05:35:26;1.37;;;1.27;;
7233;SDS011;3658;47.992;10.158;2024-03-23T05:37:52;3.57;;;1.40;;
7233;SDS011;3658;47.992;10.158;2024-03-23T05:40:18;1.73;;;1.23;;
7233;SDS011;3658;47.992;10.158;2024-03-23T05:42:45;3.47;;;1.20;;
7233;SDS011;3658;47.992;10.158;2024-03-23T05:45:11;5.20;;;1.23;;
7233;SDS011;3658;47.992;10.158;2024-03-23T05:47:37;3.10;;;1.50;;
7233;SDS011;3658;47.992;10.158;2024-03-23T05:50:05;7.90;;;1.50;;
7233;SDS011;3658;47.992;10.158;2024-03-23T05:52:35;7.90;;;1.40;;
7233;SDS011;3658;47.992;10.158;2024-03-23T05:55:00;2.20;;;1.30;;
7233;SDS011;3658;47.992;10.158;2024-03-23T05:57:27;4.07;;;1.30;;
7233;SDS011;3658;47.992;10.158;2024-03-23T05:59:53;1.53;;;1.03;;
7233;SDS011;3658;47.992;10.158;2024-03-23T06:02:20;3.43;;;1.50;;
7233;SDS011;3658;47.992;10.158;2024-03-23T06:04:46;3.53;;;1.50;;
7233;SDS011;3658;47.992;10.158;2024-03-23T06:07:14;2.97;;;1.40;;
7233;SDS011;3658;47.992;10.158;2024-03-23T06:09:40;2.47;;;1.30;;
7233;SDS011;3658;47.992;10.158;2024-03-23T06:12:07;5.97;;;1.57;;
7233;SDS011;3658;47.992;10.158;2024-03-23T06:14:33;2.67;;;1.17;;
7233;SDS011;3658;47.992;10.158;2024-03-23T06:17:00;3.53;;;1.30;;
7233;SDS011;3658;47.992;10.158;2024-03-23T06:19:26;2.23;;;1.30;;
7233;SDS011;3658;47.992;10.158;2024-03-23T06:21:54;4.13;;;1.40;;
7233;SDS011;3658;47.992;10.158;2024-03-23T06:24:21;3.50;;;1.40;;
7233;SDS011;3658;47.992;10.158;2024-03-23T06:26:49;3.10;;;1.30;;
7233;SDS011;3658;47.992;10.158;2024-03-23T06:29:15;1.37;;;1.27;;
7233;SDS011;3658;47.992;10.158;2024-03-23T06:31:42;4.17;;;1.83;;
7233;SDS011;3658;47.992;10.158;2024-03-23T06:34:07;4.50;;;1.37;;
7233;SDS011;3658;47.992;10.158;2024-03-23T06:36:34;2.03;;;1.50;;
7233;SDS011;3658;47.992;10.158;2024-03-23T06:39:01;1.40;;;1.30;;
7233;SDS011;3658;47.992;10.158;2024-03-23T06:41:29;3.90;;;1.73;;
7233;SDS011;3658;47.992;10.158;2024-03-23T06:43:55;2.43;;;1.30;;
7233;SDS011;3658;47.992;10.158;2024-03-23T06:46:22;3.13;;;1.30;;
7233;SDS011;3658;47.992;10.158;2024-03-23T06:48:48;3.00;;;1.10;;
7233;SDS011;3658;47.992;10.158;2024-03-23T06:51:14;3.03;;;1.53;;
7233;SDS011;3658;47.992;10.158;2024-03-23T06:53:40;3.27;;;1.30;;
7233;SDS011;3658;47.992;10.158;2024-03-23T06:56:07;1.20;;;1.10;;
7233;SDS011;3658;47.992;10.158;2024-03-23T06:58:34;1.87;;;1.10;;
7233;SDS011;3658;47.992;10.158;2024-03-23T07:01:00;2.83;;;1.53;;
7233;SDS011;3658;47.992;10.158;2024-03-23T07:03:26;2.03;;;1.50;;
7233;SDS011;3658;47.992;10.158;2024-03-23T07:05:57;2.97;;;1.63;;
7233;SDS011;3658;47.992;10.158;2024-03-23T07:08:23;2.50;;;1.30;;
7233;SDS011;3658;47.992;10.158;2024-03-23T07:10:49;2.17;;;1.17;;
7233;SDS011;3658;47.992;10.158;2024-03-23T07:13:15;1.30;;;1.17;;
7233;SDS011;3658;47.992;10.158;2024-03-23T07:15:44;2.33;;;1.23;;
7233;SDS011;3658;47.992;10.158;2024-03-23T07:18:16;1.63;;;1.30;;
7233;SDS011;3658;47.992;10.158;2024-03-23T07:20:51;6.90;;;1.20;;
7233;SDS011;3658;47.992;10.158;2024-03-23T07:23:17;2.40;;;1.10;;
7233;SDS011;3658;47.992;10.158;2024-03-23T07:25:44;3.60;;;1.57;;
7233;SDS011;3658;47.992;10.158;2024-03-23T07:28:10;1.30;;;1.20;;
7233;SDS011;3658;47.992;10.158;2024-03-23T07:30:36;1.30;;;1.20;;
7233;SDS011;3658;47.992;10.158;2024-03-23T07:33:04;1.93;;;1.20;;
7233;SDS011;3658;47.992;10.158;2024-03-23T07:35:31;2.40;;;1.07;;
7233;SDS011;3658;47.992;10.158;2024-03-23T07:37:57;3.40;;;1.30;;
7233;SDS011;3658;47.992;10.158;2024-03-23T07:40:30;2.20;;;1.40;;
7233;SDS011;3658;47.992;10.158;2024-03-23T07:42:56;1.53;;;1.20;;
7233;SDS011;3658;47.992;10.158;2024-03-23T07:45:22;1.63;;;1.30;;
7233;SDS011;3658;47.992;10.158;2024-03-23T07:47:48;1.50;;;1.30;;
7233;SDS011;3658;47.992;10.158;2024-03-23T07:50:16;1.23;;;1.10;;
7233;SDS011;3658;47.992;10.158;2024-03-23T07:52:42;1.67;;;1.37;;
7233;SDS011;3658;47.992;10.158;2024-03-23T07:55:09;1.30;;;1.20;;
7233;SDS011;3658;47.992;10.158;2024-03-23T07:57:34;1.23;;;1.13;;
7233;SDS011;3658;47.992;10.158;2024-03-23T08:00:01;1.83;;;1.30;;
7233;SDS011;3658;47.992;10.158;2024-03-23T08:02:28;1.40;;;1.30;;
7233;SDS011;3658;47.992;10.158;2024-03-23T08:04:54;1.73;;;1.20;;
7233;SDS011;3658;47.992;10.158;2024-03-23T08:07:21;2.40;;;1.40;;
7233;SDS011;3658;47.992;10.158;2024-03-23T08:09:48;1.27;;;1.13;;
7233;SDS011;3658;47.992;10.158;2024-03-23T08:12:14;1.27;;;1.17;;
7233;SDS011;3658;47.992;10.158;2024-03-23T08:14:41;1.20;;;1.10;;
7233;SDS011;3658;47.992;10.158;2024-03-23T08:17:06;2.03;;;1.40;;
7233;SDS011;3658;47.992;10.158;2024-03-23T08:19:33;1.50;;;1.30;;
7233;SDS011;3658;47.992;10.158;2024-03-23T08:21:59;1.30;;;1.20;;
7233;SDS011;3658;47.992;10.158;2024-03-23T08:24:28;1.40;;;1.17;;
7233;SDS011;3658;47.992;10.158;2024-03-23T08:26:55;1.37;;;1.27;;
7233;SDS011;3658;47.992;10.158;2024-03-23T08:29:22;1.20;;;1.10;;
7233;SDS011;3658;47.992;10.158;2024-03-23T08:31:47;1.20;;;1.10;;
7233;SDS011;3658;47.992;10.158;2024-03-23T08:34:14;1.33;;;1.20;;
7233;SDS011;3658;47.992;10.158;2024-03-23T08:36:40;1.20;;;1.10;;
7233;SDS011;3658;47.992;10.158;2024-03-23T08:39:07;1.57;;;1.27;;
7233;SDS011;3658;47.992;10.158;2024-03-23T08:41:34;1.30;;;1.20;;
7233;SDS011;3658;47.992;10.158;2024-03-23T08:44:01;3.10;;;1.50;;
7233;SDS011;3658;47.992;10.158;2024-03-23T08:46:26;1.57;;;1.30;;
7233;SDS011;3658;47.992;10.158;2024-03-23T08:48:53;1.40;;;1.10;;
7233;SDS011;3658;47.992;10.158;2024-03-23T08:51:19;1.20;;;1.10;;
7233;SDS011;3658;47.992;10.158;2024-03-23T08:53:46;1.30;;;1.20;;
7233;SDS011;3658;47.992;10.158;2024-03-23T08:56:12;1.47;;;1.00;;
7233;SDS011;3658;47.992;10.158;2024-03-23T08:58:40;1.60;;;1.20;;
7233;SDS011;3658;47.992;10.158;2024-03-23T09:01:06;2.13;;;1.30;;
7233;SDS011;3658;47.992;10.158;2024-03-23T09:03:34;1.30;;;1.20;;
7233;SDS011;3658;47.992;10.158;2024-03-23T09:06:00;1.97;;;1.27;;
7233;SDS011;3658;47.992;10.158;2024-03-23T09:08:28;1.40;;;1.30;;
7233;SDS011;3658;47.992;10.158;2024-03-23T09:10:54;1.30;;;1.20;;
7233;SDS011;3658;47.992;10.158;2024-03-23T09:13:20;1.37;;;1.20;;
7233;SDS011;3658;47.992;10.158;2024-03-23T09:15:48;1.70;;;1.17;;
7233;SDS011;3658;47.992;10.158;2024-03-23T09:18:16;1.37;;;1.20;;
7233;SDS011;3658;47.992;10.158;2024-03-23T09:20:43;1.20;;;1.10;;
7233;SDS011;3658;47.992;10.158;2024-03-23T09:23:09;1.00;;;1.00;;
7233;SDS011;3658;47.992;10.158;2024-03-23T09:25:36;1.60;;;1.20;;
7233;SDS011;3658;47.992;10.158;2024-03-23T09:28:03;1.23;;;1.10;;
7233;SDS011;3658;47.992;10.158;2024-03-23T09:30:30;1.10;;;1.00;;
7233;SDS011;3658;47.992;10.158;2024-03-23T09:32:58;1.20;;;1.10;;
7233;SDS011;3658;47.992;10.158;2024-03-23T09:35:25;1.17;;;1.07;;
7233;SDS011;3658;47.992;10.158;2024-03-23T09:37:50;1.27;;;1.17;;
7233;SDS011;3658;47.992;10.158;2024-03-23T09:40:17;1.30;;;1.10;;
7233;SDS011;3658;47.992;10.158;2024-03-23T09:42:43;0.90;;;0.90;;
7233;SDS011;3658;47.992;10.158;2024-03-23T09:45:16;1.83;;;1.37;;
7233;SDS011;3658;47.992;10.158;2024-03-23T09:47:45;1.20;;;1.00;;
7233;SDS011;3658;47.992;10.158;2024-03-23T09:50:13;1.13;;;1.10;;
7233;SDS011;3658;47.992;10.158;2024-03-23T09:52:39;1.00;;;0.97;;
7233;SDS011;3658;47.992;10.158;2024-03-23T09:55:07;1.60;;;1.13;;
7233;SDS011;3658;47.992;10.158;2024-03-23T09:57:33;1.10;;;1.00;;
7233;SDS011;3658;47.992;10.158;2024-03-23T10:00:00;1.10;;;1.00;;
7233;SDS011;3658;47.992;10.158;2024-03-23T10:02:26;1.10;;;1.10;;
7233;SDS011;3658;47.992;10.158;2024-03-23T10:04:54;1.20;;;1.10;;
7233;SDS011;3658;47.992;10.158;2024-03-23T10:07:21;0.90;;;0.90;;
7233;SDS011;3658;47.992;10.158;2024-03-23T10:09:48;0.80;;;0.80;;
7233;SDS011;3658;47.992;10.158;2024-03-23T10:12:17;1.00;;;1.00;;
7233;SDS011;3658;47.992;10.158;2024-03-23T10:14:44;0.90;;;0.90;;
7233;SDS011;3658;47.992;10.158;2024-03-23T10:17:12;0.90;;;0.90;;
7233;SDS011;3658;47.992;10.158;2024-03-23T10:19:43;1.10;;;1.00;;
7233;SDS011;3658;47.992;10.158;2024-03-23T10:22:09;1.00;;;1.00;;
7233;SDS011;3658;47.992;10.158;2024-03-23T10:24:40;1.00;;;0.90;;
7233;SDS011;3658;47.992;10.158;2024-03-23T10:27:06;1.13;;;1.03;;
7233;SDS011;3658;47.992;10.158;2024-03-23T10:29:33;0.97;;;0.97;;
7233;SDS011;3658;47.992;10.158;2024-03-23T10:32:08;1.10;;;1.00;;
7233;SDS011;3658;47.992;10.158;2024-03-23T10:34:35;0.90;;;0.90;;
7233;SDS011;3658;47.992;10.158;2024-03-23T10:37:02;1.20;;;1.10;;
7233;SDS011;3658;47.992;10.158;2024-03-23T10:39:33;1.20;;;1.10;;
7233;SDS011;3658;47.992;10.158;2024-03-23T10:42:05;1.20;;;1.00;;
7233;SDS011;3658;47.992;10.158;2024-03-23T10:44:32;1.03;;;1.00;;
7233;SDS011;3658;47.992;10.158;2024-03-23T10:47:00;1.20;;;1.10;;
7233;SDS011;3658;47.992;10.158;2024-03-23T10:49:26;0.90;;;0.90;;
7233;SDS011;3658;47.992;10.158;2024-03-23T10:51:56;1.20;;;1.10;;
7233;SDS011;3658;47.992;10.158;2024-03-23T10:54:23;0.90;;;0.90;;
7233;SDS011;3658;47.992;10.158;2024-03-23T10:56:51;0.93;;;0.93;;
7233;SDS011;3658;47.992;10.158;2024-03-23T10:59:22;0.97;;;0.97;;
7233;SDS011;3658;47.992;10.158;2024-03-23T11:01:54;0.90;;;0.90;;
7233;SDS011;3658;47.992;10.158;2024-03-23T11:04:30;1.13;;;1.03;;
7233;SDS011;3658;47.992;10.158;2024-03-23T11:06:57;1.10;;;1.00;;
7233;SDS011;3658;47.992;10.158;2024-03-23T11:12:17;0.90;;;0.90;;
7233;SDS011;3658;47.992;10.158;2024-03-23T11:14:52;1.07;;;0.97;;
7233;SDS011;3658;47.992;10.158;2024-03-23T11:17:21;0.97;;;0.97;;
7233;SDS011;3658;47.992;10.158;2024-03-23T11:19:52;0.80;;;0.80;;
7233;SDS011;3658;47.992;10.158;2024-03-23T11:22:40;1.33;;;0.93;;
7233;SDS011;3658;47.992;10.158;2024-03-23T11:25:17;0.83;;;0.83;;
7233;SDS011;3658;47.992;10.158;2024-03-23T11:27:45;0.90;;;0.90;;
7233;SDS011;3658;47.992;10.158;2024-03-23T11:30:17;1.43;;;0.90;;
7233;SDS011;3658;47.992;10.158;2024-03-23T11:32:45;1.00;;;0.93;;
7233;SDS011;3658;47.992;10.158;2024-03-23T11:35:24;0.90;;;0.90;;
7233;SDS011;3658;47.992;10.158;2024-03-23T11:38:04;1.10;;;1.00;;
7233;SDS011;3658;47.992;10.158;2024-03-23T11:40:32;1.10;;;1.00;;
7233;SDS011;3658;47.992;10.158;2024-03-23T11:42:59;0.87;;;0.87;;
7233;SDS011;3658;47.992;10.158;2024-03-23T11:45:28;1.20;;;1.10;;
7233;SDS011;3658;47.992;10.158;2024-03-23T11:48:07;1.10;;;1.00;;
7233;SDS011;3658;47.992;10.158;2024-03-23T11:50:36;1.57;;;1.07;;
7233;SDS011;3658;47.992;10.158;2024-03-23T11:53:09;1.10;;;1.00;;
7233;SDS011;3658;47.992;10.158;2024-03-23T11:55:41;0.93;;;0.93;;
7233;SDS011;3658;47.992;10.158;2024-03-23T11:58:08;1.13;;;1.00;;
7233;SDS011;3658;47.992;10.158;2024-03-23T12:00:36;1.60;;;1.00;;
7233;SDS011;3658;47.992;10.158;2024-03-23T12:03:02;0.90;;;0.90;;
7233;SDS011;3658;47.992;10.158;2024-03-23T12:05:30;0.80;;;0.80;;
7233;SDS011;3658;47.992;10.158;2024-03-23T12:10:48;1.10;;;1.00;;
7233;SDS011;3658;47.992;10.158;2024-03-23T12:13:16;1.00;;;0.90;;
7233;SDS011;3658;47.992;10.158;2024-03-23T12:15:45;1.13;;;1.03;;
7233;SDS011;3658;47.992;10.158;2024-03-23T12:18:11;1.00;;;0.90;;
7233;SDS011;3658;47.992;10.158;2024-03-23T12:20:38;0.90;;;0.90;;
7233;SDS011;3658;47.992;10.158;2024-03-23T12:23:05;1.27;;;1.10;;
7233;SDS011;3658;47.992;10.158;2024-03-23T12:25:36;1.03;;;0.90;;
7233;SDS011;3658;47.992;10.158;2024-03-23T12:28:03;0.87;;;0.87;;
7233;SDS011;3658;47.992;10.158;2024-03-23T12:30:31;0.90;;;0.90;;
7233;SDS011;3658;47.992;10.158;2024-03-23T12:32:59;1.00;;;0.90;;
7233;SDS011;3658;47.992;10.158;2024-03-23T12:35:26;1.20;;;1.10;;
7233;SDS011;3658;47.992;10.158;2024-03-23T12:37:51;1.37;;;1.00;;
7233;SDS011;3658;47.992;10.158;2024-03-23T12:40:18;1.10;;;1.00;;
7233;SDS011;3658;47.992;10.158;2024-03-23T12:42:44;1.03;;;0.93;;
7233;SDS011;3658;47.992;10.158;2024-03-23T12:45:11;1.43;;;1.00;;
7233;SDS011;3658;47.992;10.158;2024-03-23T12:47:36;1.10;;;1.00;;
7233;SDS011;3658;47.992;10.158;2024-03-23T12:50:05;1.07;;;1.00;;
7233;SDS011;3658;47.992;10.158;2024-03-23T12:52:31;0.80;;;0.80;;
7233;SDS011;3658;47.992;10.158;2024-03-23T12:54:58;1.30;;;1.10;;
7233;SDS011;3658;47.992;10.158;2024-03-23T12:57:24;1.50;;;1.20;;
7233;SDS011;3658;47.992;10.158;2024-03-23T12:59:51;1.10;;;1.00;;
7233;SDS011;3658;47.992;10.158;2024-03-23T13:02:18;1.30;;;1.20;;
7233;SDS011;3658;47.992;10.158;2024-03-23T13:04:46;1.00;;;1.00;;
7233;SDS011;3658;47.992;10.158;2024-03-23T13:07:15;1.57;;;1.00;;
7233;SDS011;3658;47.992;10.158;2024-03-23T13:09:43;1.00;;;1.00;;
7233;SDS011;3658;47.992;10.158;2024-03-23T13:12:10;1.10;;;1.00;;
7233;SDS011;3658;47.992;10.158;2024-03-23T13:14:37;0.90;;;0.90;;
7233;SDS011;3658;47.992;10.158;2024-03-23T13:17:04;0.93;;;0.83;;
7233;SDS011;3658;47.992;10.158;2024-03-23T13:19:30;1.20;;;1.10;;
7233;SDS011;3658;47.992;10.158;2024-03-23T13:21:57;0.90;;;0.90;;
7233;SDS011;3658;47.992;10.158;2024-03-23T13:24:24;1.03;;;0.90;;
7233;SDS011;3658;47.992;10.158;2024-03-23T13:26:52;1.10;;;1.00;;
7233;SDS011;3658;47.992;10.158;2024-03-23T13:29:18;1.10;;;1.00;;
7233;SDS011;3658;47.992;10.158;2024-03-23T13:31:45;1.20;;;1.10;;
7233;SDS011;3658;47.992;10.158;2024-03-23T13:34:11;1.10;;;1.00;;
7233;SDS011;3658;47.992;10.158;2024-03-23T13:36:40;1.10;;;1.00;;
7233;SDS011;3658;47.992;10.158;2024-03-23T13:39:06;1.20;;;1.00;;
7233;SDS011;3658;47.992;10.158;2024-03-23T13:41:37;1.40;;;1.20;;
7233;SDS011;3658;47.992;10.158;2024-03-23T13:44:04;1.43;;;1.10;;
7233;SDS011;3658;47.992;10.158;2024-03-23T13:46:31;1.30;;;1.00;;
7233;SDS011;3658;47.992;10.158;2024-03-23T13:48:57;1.23;;;1.03;;
7233;SDS011;3658;47.992;10.158;2024-03-23T13:51:24;0.90;;;0.90;;
7233;SDS011;3658;47.992;10.158;2024-03-23T13:53:50;0.90;;;0.90;;
7233;SDS011;3658;47.992;10.158;2024-03-23T13:56:17;1.47;;;1.10;;
7233;SDS011;3658;47.992;10.158;2024-03-23T13:58:44;1.17;;;0.93;;
7233;SDS011;3658;47.992;10.158;2024-03-23T14:01:12;1.63;;;1.00;;
7233;SDS011;3658;47.992;10.158;2024-03-23T14:03:38;1.47;;;1.00;;
7233;SDS011;3658;47.992;10.158;2024-03-23T14:06:06;1.17;;;1.07;;
7233;SDS011;3658;47.992;10.158;2024-03-23T14:08:32;1.60;;;1.00;;
7233;SDS011;3658;47.992;10.158;2024-03-23T14:11:01;0.90;;;0.90;;
7233;SDS011;3658;47.992;10.158;2024-03-23T14:13:28;0.80;;;0.80;;
7233;SDS011;3658;47.992;10.158;2024-03-23T14:15:57;1.37;;;1.27;;
7233;SDS011;3658;47.992;10.158;2024-03-23T14:18:23;1.00;;;1.00;;
7233;SDS011;3658;47.992;10.158;2024-03-23T14:20:51;0.90;;;0.90;;
7233;SDS011;3658;47.992;10.158;2024-03-23T14:23:17;1.00;;;0.97;;
7233;SDS011;3658;47.992;10.158;2024-03-23T14:25:44;1.53;;;1.00;;
7233;SDS011;3658;47.992;10.158;2024-03-23T14:28:10;1.40;;;1.10;;
7233;SDS011;3658;47.992;10.158;2024-03-23T14:30:40;1.30;;;1.20;;
7233;SDS011;3658;47.992;10.158;2024-03-23T14:33:08;1.30;;;1.13;;
7233;SDS011;3658;47.992;10.158;2024-03-23T14:35:35;2.40;;;1.20;;
7233;SDS011;3658;47.992;10.158;2024-03-23T14:38:01;1.10;;;1.03;;
7233;SDS011;3658;47.992;10.158;2024-03-23T14:40:28;1.27;;;1.17;;
7233;SDS011;3658;47.992;10.158;2024-03-23T14:42:54;1.83;;;1.20;;
7233;SDS011;3658;47.992;10.158;2024-03-23T14:45:21;1.00;;;1.00;;
7233;SDS011;3658;47.992;10.158;2024-03-23T14:47:48;1.40;;;1.30;;
7233;SDS011;3658;47.992;10.158;2024-03-23T14:50:16;1.60;;;1.10;;
7233;SDS011;3658;47.992;10.158;2024-03-23T14:52:43;1.77;;;1.20;;
7233;SDS011;3658;47.992;10.158;2024-03-23T14:55:11;1.30;;;1.20;;
7233;SDS011;3658;47.992;10.158;2024-03-23T14:57:37;1.30;;;1.20;;
7233;SDS011;3658;47.992;10.158;2024-03-23T15:00:06;1.43;;;1.27;;
7233;SDS011;3658;47.992;10.158;2024-03-23T15:02:33;1.47;;;1.10;;
7233;SDS011;3658;47.992;10.158;2024-03-23T15:05:00;1.07;;;1.00;;
7233;SDS011;3658;47.992;10.158;2024-03-23T15:07:27;1.33;;;1.23;;
7233;SDS011;3658;47.992;10.158;2024-03-23T15:09:54;1.87;;;1.37;;
7233;SDS011;3658;47.992;10.158;2024-03-23T15:12:19;1.23;;;1.03;;
7233;SDS011;3658;47.992;10.158;2024-03-23T15:14:47;1.20;;;1.00;;
7233;SDS011;3658;47.992;10.158;2024-03-23T15:17:13;1.33;;;1.00;;
7233;SDS011;3658;47.992;10.158;2024-03-23T15:19:39;1.37;;;1.17;;
7233;SDS011;3658;47.992;10.158;2024-03-23T15:22:06;1.17;;;1.07;;
7233;SDS011;3658;47.992;10.158;2024-03-23T15:24:36;1.00;;;1.00;;
7233;SDS011;3658;47.992;10.158;2024-03-23T15:27:02;1.17;;;1.07;;
7233;SDS011;3658;47.992;10.158;2024-03-23T15:29:29;0.93;;;0.93;;
7233;SDS011;3658;47.992;10.158;2024-03-23T15:31:55;1.23;;;1.13;;
7233;SDS011;3658;47.992;10.158;2024-03-23T15:34:21;1.17;;;0.90;;
7233;SDS011;3658;47.992;10.158;2024-03-23T15:36:47;1.30;;;1.20;;
7233;SDS011;3658;47.992;10.158;2024-03-23T15:39:15;1.27;;;1.13;;
7233;SDS011;3658;47.992;10.158;2024-03-23T15:41:42;1.20;;;1.10;;
7233;SDS011;3658;47.992;10.158;2024-03-23T15:44:10;1.60;;;1.00;;
7233;SDS011;3658;47.992;10.158;2024-03-23T15:46:36;1.23;;;1.00;;
7233;SDS011;3658;47.992;10.158;2024-03-23T15:49:03;1.30;;;1.20;;
7233;SDS011;3658;47.992;10.158;2024-03-23T15:51:29;1.20;;;1.03;;
7233;SDS011;3658;47.992;10.158;2024-03-23T15:53:58;1.47;;;1.00;;
7233;SDS011;3658;47.992;10.158;2024-03-23T15:56:24;1.43;;;1.33;;
7233;SDS011;3658;47.992;10.158;2024-03-23T15:58:52;1.00;;;1.00;;